sensor_id;sensor_type;location;lat;lon;timestamp;pressure;altitude;pressure_sealevel;temperature;humidity
25080;BME280;13071;48.868;9.996;2023-05-19T00:01:42;97021.16;;;11.65;71.41
25080;BME280;13071;48.868;9.996;2023-05-19T00:04:10;97020.72;;;11.63;72.07
25080;BME280;13071;48.868;9.996;2023-05-19T00:06:39;97018.78;;;11.63;71.74
25080;BME280;13071;48.868;9.996;2023-05-19T00:09:07;97014.34;;;11.59;72.26
25080;BME280;13071;48.868;9.996;2023-05-19T00:11:35;97012.22;;;11.64;71.88
25080;BME280;13071;48.868;9.996;2023-05-19T00:14:05;97011.47;;;11.55;72.65
25080;BME280;13071;48.868;9.996;2023-05-19T00:16:33;96998.22;;;11.62;72.41
25080;BME280;13071;48.868;9.996;2023-05-19T00:19:02;96999.56;;;11.48;73.09
25080;BME280;13071;48.868;9.996;2023-05-19T00:21:29;97000.31;;;11.57;72.87
25080;BME280;13071;48.868;9.996;2023-05-19T00:23:56;96997.13;;;11.55;72.55
25080;BME280;13071;48.868;9.996;2023-05-19T00:26:23;96995.09;;;11.52;72.87
25080;BME280;13071;48.868;9.996;2023-05-19T00:28:51;96996.38;;;11.54;73.04
25080;BME280;13071;48.868;9.996;2023-05-19T00:31:20;96987.69;;;11.61;73.17
25080;BME280;13071;48.868;9.996;2023-05-19T00:33:46;96997.91;;;11.64;73.23
25080;BME280;13071;48.868;9.996;2023-05-19T00:36:13;96998.34;;;11.66;73.10
25080;BME280;13071;48.868;9.996;2023-05-19T00:38:39;96994.84;;;11.65;73.56
25080;BME280;13071;48.868;9.996;2023-05-19T00:41:06;97003.66;;;11.62;73.67
25080;BME280;13071;48.868;9.996;2023-05-19T00:43:33;96992.13;;;11.65;73.45
25080;BME280;13071;48.868;9.996;2023-05-19T00:45:59;96993.91;;;11.61;74.00
25080;BME280;13071;48.868;9.996;2023-05-19T00:48:28;96994.94;;;11.48;73.96
25080;BME280;13071;48.868;9.996;2023-05-19T00:50:55;96989.53;;;11.48;72.98
25080;BME280;13071;48.868;9.996;2023-05-19T00:53:26;96987.09;;;11.55;73.23
25080;BME280;13071;48.868;9.996;2023-05-19T00:55:53;96977.56;;;11.49;72.00
25080;BME280;13071;48.868;9.996;2023-05-19T00:58:20;96970.41;;;11.45;73.32
25080;BME280;13071;48.868;9.996;2023-05-19T01:00:58;96983.00;;;11.49;74.00
25080;BME280;13071;48.868;9.996;2023-05-19T01:03:29;96983.19;;;11.44;74.57
25080;BME280;13071;48.868;9.996;2023-05-19T01:05:57;96985.41;;;11.42;75.06
25080;BME280;13071;48.868;9.996;2023-05-19T01:08:26;96979.56;;;11.32;75.29
25080;BME280;13071;48.868;9.996;2023-05-19T01:10:53;96978.63;;;11.27;75.60
25080;BME280;13071;48.868;9.996;2023-05-19T01:13:19;96976.72;;;11.28;75.03
25080;BME280;13071;48.868;9.996;2023-05-19T01:15:58;96963.03;;;11.24;75.37
25080;BME280;13071;48.868;9.996;2023-05-19T01:18:37;96965.91;;;11.19;75.48
25080;BME280;13071;48.868;9.996;2023-05-19T01:24:08;96969.44;;;11.11;76.26
25080;BME280;13071;48.868;9.996;2023-05-19T01:26:58;96965.66;;;11.04;76.47
25080;BME280;13071;48.868;9.996;2023-05-19T01:29:40;96978.72;;;11.02;76.75
25080;BME280;13071;48.868;9.996;2023-05-19T01:32:09;96967.25;;;10.96;77.00
25080;BME280;13071;48.868;9.996;2023-05-19T01:34:44;96969.69;;;10.89;76.71
25080;BME280;13071;48.868;9.996;2023-05-19T01:37:12;96979.25;;;10.87;76.49
25080;BME280;13071;48.868;9.996;2023-05-19T01:39:41;96973.81;;;10.87;76.16
25080;BME280;13071;48.868;9.996;2023-05-19T01:42:08;96969.03;;;10.92;75.66
25080;BME280;13071;48.868;9.996;2023-05-19T01:44:35;96969.97;;;10.96;75.62
25080;BME280;13071;48.868;9.996;2023-05-19T01:47:02;96976.97;;;10.97;75.16
25080;BME280;13071;48.868;9.996;2023-05-19T01:49:31;96978.44;;;10.95;75.54
25080;BME280;13071;48.868;9.996;2023-05-19T01:51:57;96984.28;;;11.05;75.41
25080;BME280;13071;48.868;9.996;2023-05-19T01:54:24;96980.97;;;11.00;75.90
25080;BME280;13071;48.868;9.996;2023-05-19T01:56:56;96990.25;;;10.90;76.56
25080;BME280;13071;48.868;9.996;2023-05-19T01:59:38;96985.28;;;10.92;76.79
25080;BME280;13071;48.868;9.996;2023-05-19T02:02:15;96984.31;;;10.97;76.75
25080;BME280;13071;48.868;9.996;2023-05-19T02:04:54;96985.06;;;11.06;76.54
25080;BME280;13071;48.868;9.996;2023-05-19T02:07:28;96990.47;;;11.06;76.54
25080;BME280;13071;48.868;9.996;2023-05-19T02:10:00;96981.31;;;10.90;76.74
25080;BME280;13071;48.868;9.996;2023-05-19T02:12:33;96975.22;;;11.01;76.99
25080;BME280;13071;48.868;9.996;2023-05-19T02:15:04;96984.44;;;11.00;77.21
25080;BME280;13071;48.868;9.996;2023-05-19T02:17:32;96979.03;;;11.00;77.63
25080;BME280;13071;48.868;9.996;2023-05-19T02:20:01;96974.91;;;11.03;77.65
25080;BME280;13071;48.868;9.996;2023-05-19T02:22:28;96976.19;;;10.97;77.88
25080;BME280;13071;48.868;9.996;2023-05-19T02:24:55;96973.47;;;10.97;78.03
25080;BME280;13071;48.868;9.996;2023-05-19T02:27:22;96969.00;;;11.01;77.03
25080;BME280;13071;48.868;9.996;2023-05-19T02:29:48;96966.09;;;11.06;76.92
25080;BME280;13071;48.868;9.996;2023-05-19T02:32:15;96962.34;;;10.90;77.37
25080;BME280;13071;48.868;9.996;2023-05-19T02:34:41;96956.72;;;11.03;76.82
25080;BME280;13071;48.868;9.996;2023-05-19T02:37:11;96957.72;;;10.99;76.90
25080;BME280;13071;48.868;9.996;2023-05-19T02:39:38;96959.75;;;11.02;76.90
25080;BME280;13071;48.868;9.996;2023-05-19T02:42:04;96957.84;;;11.02;77.24
25080;BME280;13071;48.868;9.996;2023-05-19T02:44:31;96957.53;;;11.04;77.37
25080;BME280;13071;48.868;9.996;2023-05-19T02:46:58;96958.50;;;10.99;77.79
25080;BME280;13071;48.868;9.996;2023-05-19T02:49:24;96944.00;;;11.04;77.09
25080;BME280;13071;48.868;9.996;2023-05-19T02:51:51;96940.94;;;11.05;77.19
25080;BME280;13071;48.868;9.996;2023-05-19T02:54:19;96945.25;;;11.06;77.24
25080;BME280;13071;48.868;9.996;2023-05-19T02:56:45;96935.06;;;11.03;76.93
25080;BME280;13071;48.868;9.996;2023-05-19T02:59:12;96939.19;;;11.01;77.07
25080;BME280;13071;48.868;9.996;2023-05-19T03:01:39;96932.06;;;10.96;77.54
25080;BME280;13071;48.868;9.996;2023-05-19T03:04:05;96937.34;;;10.93;78.05
25080;BME280;13071;48.868;9.996;2023-05-19T03:06:32;96933.34;;;10.99;77.40
25080;BME280;13071;48.868;9.996;2023-05-19T03:08:59;96941.31;;;10.95;78.21
25080;BME280;13071;48.868;9.996;2023-05-19T03:11:27;96940.66;;;10.98;78.19
25080;BME280;13071;48.868;9.996;2023-05-19T03:13:53;96944.22;;;10.90;78.64
25080;BME280;13071;48.868;9.996;2023-05-19T03:16:20;96935.47;;;10.85;78.15
25080;BME280;13071;48.868;9.996;2023-05-19T03:18:46;96937.38;;;10.84;78.90
25080;BME280;13071;48.868;9.996;2023-05-19T03:21:13;96940.06;;;10.84;78.59
25080;BME280;13071;48.868;9.996;2023-05-19T03:23:40;96938.78;;;10.90;78.79
25080;BME280;13071;48.868;9.996;2023-05-19T03:26:07;96938.31;;;10.88;79.33
25080;BME280;13071;48.868;9.996;2023-05-19T03:28:34;96929.41;;;10.79;79.64
25080;BME280;13071;48.868;9.996;2023-05-19T03:31:01;96933.09;;;10.74;79.47
25080;BME280;13071;48.868;9.996;2023-05-19T03:33:28;96941.84;;;10.71;79.81
25080;BME280;13071;48.868;9.996;2023-05-19T03:35:55;96945.25;;;10.60;79.86
25080;BME280;13071;48.868;9.996;2023-05-19T03:38:21;96951.19;;;10.36;80.28
25080;BME280;13071;48.868;9.996;2023-05-19T03:40:48;96956.75;;;10.31;82.25
25080;BME280;13071;48.868;9.996;2023-05-19T03:43:15;96954.97;;;10.26;81.99
25080;BME280;13071;48.868;9.996;2023-05-19T03:45:43;96968.34;;;10.14;83.05
25080;BME280;13071;48.868;9.996;2023-05-19T03:48:09;96962.31;;;10.17;82.09
25080;BME280;13071;48.868;9.996;2023-05-19T03:50:36;96962.47;;;10.21;82.34
25080;BME280;13071;48.868;9.996;2023-05-19T03:53:03;96968.50;;;10.18;81.63
25080;BME280;13071;48.868;9.996;2023-05-19T03:55:30;96958.78;;;10.08;81.99
25080;BME280;13071;48.868;9.996;2023-05-19T03:57:56;96966.09;;;9.99;81.44
25080;BME280;13071;48.868;9.996;2023-05-19T04:00:23;96967.34;;;9.84;81.26
25080;BME280;13071;48.868;9.996;2023-05-19T04:02:51;96969.72;;;9.77;80.58
25080;BME280;13071;48.868;9.996;2023-05-19T04:05:18;96967.00;;;9.77;81.00
25080;BME280;13071;48.868;9.996;2023-05-19T04:07:44;96966.56;;;9.67;80.27
25080;BME280;13071;48.868;9.996;2023-05-19T04:10:12;96969.41;;;9.70;80.76
25080;BME280;13071;48.868;9.996;2023-05-19T04:12:38;96966.56;;;9.75;80.20
25080;BME280;13071;48.868;9.996;2023-05-19T04:15:06;96968.78;;;9.82;79.12
25080;BME280;13071;48.868;9.996;2023-05-19T04:17:35;96963.69;;;9.89;78.72
25080;BME280;13071;48.868;9.996;2023-05-19T04:20:04;96974.66;;;9.67;78.64
25080;BME280;13071;48.868;9.996;2023-05-19T04:22:31;96975.47;;;9.93;78.39
25080;BME280;13071;48.868;9.996;2023-05-19T04:24:58;96976.28;;;10.11;77.61
25080;BME280;13071;48.868;9.996;2023-05-19T04:27:24;96970.09;;;10.10;77.43
25080;BME280;13071;48.868;9.996;2023-05-19T04:29:52;96973.22;;;9.69;79.25
25080;BME280;13071;48.868;9.996;2023-05-19T04:32:19;96966.09;;;9.90;77.83
25080;BME280;13071;48.868;9.996;2023-05-19T04:34:46;96970.38;;;9.83;78.18
25080;BME280;13071;48.868;9.996;2023-05-19T04:37:14;96962.44;;;10.12;77.25
25080;BME280;13071;48.868;9.996;2023-05-19T04:39:41;96971.53;;;10.25;76.14
25080;BME280;13071;48.868;9.996;2023-05-19T04:42:09;96963.16;;;10.81;74.63
25080;BME280;13071;48.868;9.996;2023-05-19T04:44:36;96970.75;;;11.73;72.27
25080;BME280;13071;48.868;9.996;2023-05-19T04:47:05;96969.63;;;12.57;68.87
25080;BME280;13071;48.868;9.996;2023-05-19T04:49:33;96969.06;;;13.08;65.75
25080;BME280;13071;48.868;9.996;2023-05-19T04:52:04;96975.25;;;11.60;69.55
25080;BME280;13071;48.868;9.996;2023-05-19T04:54:33;96977.09;;;12.60;67.33
25080;BME280;13071;48.868;9.996;2023-05-19T04:56:59;96976.03;;;12.73;67.21
25080;BME280;13071;48.868;9.996;2023-05-19T04:59:26;96972.75;;;12.79;67.78
25080;BME280;13071;48.868;9.996;2023-05-19T05:01:53;96972.31;;;13.59;64.24
25080;BME280;13071;48.868;9.996;2023-05-19T05:04:20;96964.00;;;13.92;63.74
25080;BME280;13071;48.868;9.996;2023-05-19T05:06:47;96963.00;;;13.84;63.30
25080;BME280;13071;48.868;9.996;2023-05-19T05:09:14;96964.34;;;14.42;61.17
25080;BME280;13071;48.868;9.996;2023-05-19T05:11:42;96967.09;;;14.30;62.16
25080;BME280;13071;48.868;9.996;2023-05-19T05:14:09;96971.13;;;13.96;63.37
25080;BME280;13071;48.868;9.996;2023-05-19T05:16:36;96962.16;;;14.36;61.34
25080;BME280;13071;48.868;9.996;2023-05-19T05:19:04;96959.16;;;14.81;60.25
25080;BME280;13071;48.868;9.996;2023-05-19T05:21:31;96958.34;;;14.37;60.67
25080;BME280;13071;48.868;9.996;2023-05-19T05:23:58;96956.16;;;14.02;61.73
25080;BME280;13071;48.868;9.996;2023-05-19T05:26:29;96952.94;;;14.12;62.35
25080;BME280;13071;48.868;9.996;2023-05-19T05:28:59;96955.78;;;13.52;63.97
25080;BME280;13071;48.868;9.996;2023-05-19T05:31:26;96957.69;;;12.16;67.53
25080;BME280;13071;48.868;9.996;2023-05-19T05:33:53;96951.94;;;11.97;68.63
25080;BME280;13071;48.868;9.996;2023-05-19T05:36:20;96954.63;;;11.76;69.00
25080;BME280;13071;48.868;9.996;2023-05-19T05:38:46;96951.47;;;11.65;70.53
25080;BME280;13071;48.868;9.996;2023-05-19T05:41:13;96960.88;;;11.68;70.36
25080;BME280;13071;48.868;9.996;2023-05-19T05:43:39;96961.63;;;11.48;71.19
25080;BME280;13071;48.868;9.996;2023-05-19T05:46:07;96965.59;;;11.50;71.86
25080;BME280;13071;48.868;9.996;2023-05-19T05:48:34;96961.25;;;11.29;71.56
25080;BME280;13071;48.868;9.996;2023-05-19T05:51:01;96963.63;;;11.30;72.57
25080;BME280;13071;48.868;9.996;2023-05-19T05:53:29;96969.50;;;11.32;70.39
25080;BME280;13071;48.868;9.996;2023-05-19T05:55:57;96965.47;;;11.47;71.64
25080;BME280;13071;48.868;9.996;2023-05-19T05:58:23;96968.31;;;11.50;70.66
25080;BME280;13071;48.868;9.996;2023-05-19T06:00:50;96971.00;;;11.50;69.63
25080;BME280;13071;48.868;9.996;2023-05-19T06:03:22;96966.06;;;11.23;71.73
25080;BME280;13071;48.868;9.996;2023-05-19T06:05:49;96979.50;;;11.40;71.50
25080;BME280;13071;48.868;9.996;2023-05-19T06:08:15;96969.25;;;11.16;72.39
25080;BME280;13071;48.868;9.996;2023-05-19T06:10:42;96964.97;;;11.45;72.43
25080;BME280;13071;48.868;9.996;2023-05-19T06:13:09;96973.97;;;11.37;70.17
25080;BME280;13071;48.868;9.996;2023-05-19T06:15:35;96967.59;;;11.33;69.53
25080;BME280;13071;48.868;9.996;2023-05-19T06:18:02;96985.72;;;11.49;69.67
25080;BME280;13071;48.868;9.996;2023-05-19T06:20:30;96970.25;;;11.41;70.60
25080;BME280;13071;48.868;9.996;2023-05-19T06:22:56;96969.28;;;11.46;72.92
25080;BME280;13071;48.868;9.996;2023-05-19T06:25:23;96968.97;;;11.47;70.08
25080;BME280;13071;48.868;9.996;2023-05-19T06:27:50;96960.22;;;11.42;70.84
25080;BME280;13071;48.868;9.996;2023-05-19T06:30:16;96970.09;;;11.46;70.45
25080;BME280;13071;48.868;9.996;2023-05-19T06:32:43;96964.72;;;11.38;70.52
25080;BME280;13071;48.868;9.996;2023-05-19T06:35:10;96970.81;;;11.55;69.16
25080;BME280;13071;48.868;9.996;2023-05-19T06:37:38;96970.19;;;11.58;68.65
25080;BME280;13071;48.868;9.996;2023-05-19T06:40:06;96968.84;;;11.64;70.35
25080;BME280;13071;48.868;9.996;2023-05-19T06:42:32;96971.56;;;11.64;70.64
25080;BME280;13071;48.868;9.996;2023-05-19T06:44:59;96967.97;;;11.52;71.25
25080;BME280;13071;48.868;9.996;2023-05-19T06:47:25;96970.25;;;11.41;71.40
25080;BME280;13071;48.868;9.996;2023-05-19T06:49:52;96969.84;;;11.60;70.73
25080;BME280;13071;48.868;9.996;2023-05-19T06:52:19;96968.28;;;11.88;70.29
25080;BME280;13071;48.868;9.996;2023-05-19T06:54:47;96968.09;;;11.93;69.95
25080;BME280;13071;48.868;9.996;2023-05-19T06:57:14;96975.13;;;11.86;70.51
25080;BME280;13071;48.868;9.996;2023-05-19T06:59:41;96968.84;;;11.73;72.06
25080;BME280;13071;48.868;9.996;2023-05-19T07:02:09;96970.72;;;11.81;71.68
25080;BME280;13071;48.868;9.996;2023-05-19T07:04:35;96973.63;;;11.97;70.84
25080;BME280;13071;48.868;9.996;2023-05-19T07:07:02;96961.72;;;11.89;71.07
25080;BME280;13071;48.868;9.996;2023-05-19T07:09:29;96966.53;;;12.25;69.73
25080;BME280;13071;48.868;9.996;2023-05-19T07:11:57;96959.88;;;12.02;70.54
25080;BME280;13071;48.868;9.996;2023-05-19T07:14:23;96961.53;;;12.15;69.71
25080;BME280;13071;48.868;9.996;2023-05-19T07:16:50;96961.06;;;11.92;70.87
25080;BME280;13071;48.868;9.996;2023-05-19T07:19:17;96956.63;;;11.88;71.63
25080;BME280;13071;48.868;9.996;2023-05-19T07:21:44;96965.91;;;12.28;69.86
25080;BME280;13071;48.868;9.996;2023-05-19T07:24:10;96966.31;;;12.51;69.18
25080;BME280;13071;48.868;9.996;2023-05-19T07:26:37;96968.97;;;12.39;69.46
25080;BME280;13071;48.868;9.996;2023-05-19T07:29:05;96968.91;;;12.47;70.28
25080;BME280;13071;48.868;9.996;2023-05-19T07:31:32;96957.41;;;12.30;69.48
25080;BME280;13071;48.868;9.996;2023-05-19T07:33:58;96955.56;;;12.01;71.62
25080;BME280;13071;48.868;9.996;2023-05-19T07:36:25;96956.69;;;12.00;70.99
25080;BME280;13071;48.868;9.996;2023-05-19T07:38:52;96956.56;;;11.96;72.45
25080;BME280;13071;48.868;9.996;2023-05-19T07:41:18;96961.72;;;12.10;72.80
25080;BME280;13071;48.868;9.996;2023-05-19T07:43:45;96953.19;;;12.20;72.05
25080;BME280;13071;48.868;9.996;2023-05-19T07:46:13;96955.03;;;11.87;70.97
25080;BME280;13071;48.868;9.996;2023-05-19T07:48:40;96955.03;;;12.28;70.47
25080;BME280;13071;48.868;9.996;2023-05-19T07:51:06;96962.63;;;12.35;71.15
25080;BME280;13071;48.868;9.996;2023-05-19T07:53:34;96959.78;;;12.31;70.64
25080;BME280;13071;48.868;9.996;2023-05-19T07:56:01;96962.09;;;12.00;71.11
25080;BME280;13071;48.868;9.996;2023-05-19T07:58:27;96961.38;;;12.32;72.13
25080;BME280;13071;48.868;9.996;2023-05-19T08:00:56;96963.50;;;12.47;71.12
25080;BME280;13071;48.868;9.996;2023-05-19T08:03:24;96959.69;;;12.61;71.02
25080;BME280;13071;48.868;9.996;2023-05-19T08:05:51;96950.38;;;12.29;71.45
25080;BME280;13071;48.868;9.996;2023-05-19T08:08:17;96953.25;;;12.65;71.52
25080;BME280;13071;48.868;9.996;2023-05-19T08:10:44;96955.66;;;12.79;69.14
25080;BME280;13071;48.868;9.996;2023-05-19T08:13:11;96952.41;;;12.85;69.63
25080;BME280;13071;48.868;9.996;2023-05-19T08:15:37;96956.75;;;13.11;67.98
25080;BME280;13071;48.868;9.996;2023-05-19T08:18:05;96953.41;;;12.81;69.07
25080;BME280;13071;48.868;9.996;2023-05-19T08:20:33;96952.44;;;13.10;67.82
25080;BME280;13071;48.868;9.996;2023-05-19T08:23:00;96949.06;;;13.13;67.95
25080;BME280;13071;48.868;9.996;2023-05-19T08:25:27;96952.72;;;12.72;68.90
25080;BME280;13071;48.868;9.996;2023-05-19T08:27:54;96952.94;;;12.79;70.59
25080;BME280;13071;48.868;9.996;2023-05-19T08:30:20;96942.75;;;12.88;69.02
25080;BME280;13071;48.868;9.996;2023-05-19T08:32:47;96945.75;;;13.07;68.77
25080;BME280;13071;48.868;9.996;2023-05-19T08:35:14;96943.06;;;13.19;67.35
25080;BME280;13071;48.868;9.996;2023-05-19T08:37:42;96935.34;;;13.09;68.56
25080;BME280;13071;48.868;9.996;2023-05-19T08:40:14;96934.38;;;13.50;67.09
25080;BME280;13071;48.868;9.996;2023-05-19T08:42:41;96928.38;;;13.45;68.35
25080;BME280;13071;48.868;9.996;2023-05-19T08:45:08;96928.34;;;13.57;66.43
25080;BME280;13071;48.868;9.996;2023-05-19T08:47:35;96929.47;;;13.68;67.17
25080;BME280;13071;48.868;9.996;2023-05-19T08:50:04;96927.06;;;13.78;67.08
25080;BME280;13071;48.868;9.996;2023-05-19T08:52:39;96923.03;;;13.60;69.05
25080;BME280;13071;48.868;9.996;2023-05-19T08:55:16;96926.75;;;13.80;68.93
25080;BME280;13071;48.868;9.996;2023-05-19T08:57:46;96934.38;;;14.14;65.98
25080;BME280;13071;48.868;9.996;2023-05-19T09:00:15;96928.84;;;13.99;65.17
25080;BME280;13071;48.868;9.996;2023-05-19T09:02:44;96922.78;;;13.65;66.32
25080;BME280;13071;48.868;9.996;2023-05-19T09:05:11;96921.22;;;13.40;68.51
25080;BME280;13071;48.868;9.996;2023-05-19T09:07:38;96922.78;;;13.65;67.21
25080;BME280;13071;48.868;9.996;2023-05-19T09:10:07;96923.31;;;13.83;66.75
25080;BME280;13071;48.868;9.996;2023-05-19T09:12:39;96918.91;;;14.18;65.66
25080;BME280;13071;48.868;9.996;2023-05-19T09:15:08;96920.38;;;14.16;64.81
25080;BME280;13071;48.868;9.996;2023-05-19T09:17:35;96922.75;;;14.30;64.88
25080;BME280;13071;48.868;9.996;2023-05-19T09:20:02;96922.28;;;14.55;63.33
25080;BME280;13071;48.868;9.996;2023-05-19T09:22:32;96921.84;;;14.25;64.12
25080;BME280;13071;48.868;9.996;2023-05-19T09:25:00;96922.59;;;14.10;64.99
25080;BME280;13071;48.868;9.996;2023-05-19T09:27:30;96926.59;;;14.28;64.12
25080;BME280;13071;48.868;9.996;2023-05-19T09:30:06;96921.53;;;14.55;64.27
25080;BME280;13071;48.868;9.996;2023-05-19T09:32:33;96911.88;;;14.17;63.50
25080;BME280;13071;48.868;9.996;2023-05-19T09:35:01;96913.13;;;14.20;64.29
25080;BME280;13071;48.868;9.996;2023-05-19T09:37:28;96911.94;;;14.45;63.49
25080;BME280;13071;48.868;9.996;2023-05-19T09:39:56;96909.47;;;14.00;63.96
25080;BME280;13071;48.868;9.996;2023-05-19T09:42:23;96904.50;;;14.18;66.08
25080;BME280;13071;48.868;9.996;2023-05-19T09:44:57;96906.13;;;14.47;64.35
25080;BME280;13071;48.868;9.996;2023-05-19T09:47:26;96911.81;;;14.42;66.15
25080;BME280;13071;48.868;9.996;2023-05-19T09:49:53;96902.34;;;14.51;63.47
25080;BME280;13071;48.868;9.996;2023-05-19T09:52:19;96910.41;;;14.20;64.33
25080;BME280;13071;48.868;9.996;2023-05-19T09:54:47;96900.81;;;14.10;65.26
25080;BME280;13071;48.868;9.996;2023-05-19T09:57:14;96903.94;;;14.24;64.02
25080;BME280;13071;48.868;9.996;2023-05-19T09:59:42;96905.88;;;14.52;64.75
25080;BME280;13071;48.868;9.996;2023-05-19T10:02:14;96898.47;;;14.24;65.91
25080;BME280;13071;48.868;9.996;2023-05-19T10:04:43;96892.38;;;14.71;65.92
25080;BME280;13071;48.868;9.996;2023-05-19T10:07:13;96887.44;;;14.61;63.28
25080;BME280;13071;48.868;9.996;2023-05-19T10:09:42;96887.34;;;14.30;66.00
25080;BME280;13071;48.868;9.996;2023-05-19T10:12:09;96884.81;;;14.09;65.47
25080;BME280;13071;48.868;9.996;2023-05-19T10:14:37;96888.00;;;14.11;65.21
25080;BME280;13071;48.868;9.996;2023-05-19T10:17:04;96881.00;;;13.98;64.87
25080;BME280;13071;48.868;9.996;2023-05-19T10:19:32;96886.41;;;13.70;66.95
25080;BME280;13071;48.868;9.996;2023-05-19T10:22:00;96887.38;;;13.25;66.88
25080;BME280;13071;48.868;9.996;2023-05-19T10:24:27;96884.06;;;13.56;66.31
25080;BME280;13071;48.868;9.996;2023-05-19T10:26:56;96880.72;;;13.75;67.18
25080;BME280;13071;48.868;9.996;2023-05-19T10:29:27;96881.84;;;13.86;67.70
25080;BME280;13071;48.868;9.996;2023-05-19T10:31:59;96885.47;;;13.78;66.92
25080;BME280;13071;48.868;9.996;2023-05-19T10:34:43;96876.41;;;13.86;66.93
25080;BME280;13071;48.868;9.996;2023-05-19T10:37:23;96886.19;;;14.03;65.96
25080;BME280;13071;48.868;9.996;2023-05-19T10:39:57;96887.81;;;13.92;66.15
25080;BME280;13071;48.868;9.996;2023-05-19T10:42:30;96895.22;;;13.91;67.21
25080;BME280;13071;48.868;9.996;2023-05-19T10:45:04;96896.34;;;13.90;68.34
25080;BME280;13071;48.868;9.996;2023-05-19T10:47:35;96894.28;;;13.87;66.68
25080;BME280;13071;48.868;9.996;2023-05-19T10:50:03;96901.63;;;13.99;67.05
25080;BME280;13071;48.868;9.996;2023-05-19T10:52:35;96905.13;;;13.11;67.37
25080;BME280;13071;48.868;9.996;2023-05-19T10:55:03;96901.06;;;13.41;66.83
25080;BME280;13071;48.868;9.996;2023-05-19T10:57:32;96902.44;;;13.35;66.82
25080;BME280;13071;48.868;9.996;2023-05-19T11:00:02;96894.97;;;13.32;66.83
25080;BME280;13071;48.868;9.996;2023-05-19T11:02:36;96889.41;;;13.28;67.61
25080;BME280;13071;48.868;9.996;2023-05-19T11:05:07;96892.69;;;13.46;68.15
25080;BME280;13071;48.868;9.996;2023-05-19T11:07:36;96895.22;;;13.67;68.11
25080;BME280;13071;48.868;9.996;2023-05-19T11:10:06;96894.56;;;13.70;68.03
25080;BME280;13071;48.868;9.996;2023-05-19T11:12:39;96893.44;;;13.71;68.54
25080;BME280;13071;48.868;9.996;2023-05-19T11:15:10;96886.59;;;13.89;66.90
25080;BME280;13071;48.868;9.996;2023-05-19T11:17:38;96884.69;;;13.77;67.30
25080;BME280;13071;48.868;9.996;2023-05-19T11:20:07;96882.81;;;13.94;65.89
25080;BME280;13071;48.868;9.996;2023-05-19T11:22:36;96879.66;;;13.92;69.09
25080;BME280;13071;48.868;9.996;2023-05-19T11:25:03;96876.16;;;13.91;66.00
25080;BME280;13071;48.868;9.996;2023-05-19T11:27:32;96874.81;;;13.85;66.74
25080;BME280;13071;48.868;9.996;2023-05-19T11:30:09;96872.66;;;13.78;67.00
25080;BME280;13071;48.868;9.996;2023-05-19T11:32:39;96877.03;;;13.95;65.83
25080;BME280;13071;48.868;9.996;2023-05-19T11:35:07;96882.88;;;14.09;66.43
25080;BME280;13071;48.868;9.996;2023-05-19T11:37:35;96876.78;;;14.28;65.82
25080;BME280;13071;48.868;9.996;2023-05-19T11:40:05;96877.88;;;14.11;64.94
25080;BME280;13071;48.868;9.996;2023-05-19T11:42:33;96878.28;;;14.25;64.93
25080;BME280;13071;48.868;9.996;2023-05-19T11:45:00;96892.09;;;14.05;65.46
25080;BME280;13071;48.868;9.996;2023-05-19T11:47:27;96878.81;;;14.03;65.69
25080;BME280;13071;48.868;9.996;2023-05-19T11:49:54;96886.19;;;14.03;66.10
25080;BME280;13071;48.868;9.996;2023-05-19T11:52:22;96876.50;;;14.17;66.42
25080;BME280;13071;48.868;9.996;2023-05-19T11:54:50;96887.44;;;14.33;67.67
25080;BME280;13071;48.868;9.996;2023-05-19T11:57:17;96882.03;;;14.21;66.51
25080;BME280;13071;48.868;9.996;2023-05-19T11:59:44;96887.78;;;14.32;65.31
25080;BME280;13071;48.868;9.996;2023-05-19T12:02:16;96887.69;;;14.28;65.11
25080;BME280;13071;48.868;9.996;2023-05-19T12:04:43;96884.03;;;14.08;66.45
25080;BME280;13071;48.868;9.996;2023-05-19T12:07:10;96882.34;;;14.04;64.90
25080;BME280;13071;48.868;9.996;2023-05-19T12:09:37;96886.34;;;14.22;66.06
25080;BME280;13071;48.868;9.996;2023-05-19T12:12:06;96883.78;;;14.13;66.53
25080;BME280;13071;48.868;9.996;2023-05-19T12:14:33;96877.69;;;14.04;65.21
25080;BME280;13071;48.868;9.996;2023-05-19T12:17:09;96873.72;;;14.02;66.08
25080;BME280;13071;48.868;9.996;2023-05-19T12:19:36;96874.75;;;13.97;65.88
25080;BME280;13071;48.868;9.996;2023-05-19T12:22:02;96869.31;;;13.97;66.66
25080;BME280;13071;48.868;9.996;2023-05-19T12:24:31;96866.69;;;14.28;65.43
25080;BME280;13071;48.868;9.996;2023-05-19T12:27:08;96866.56;;;14.37;65.04
25080;BME280;13071;48.868;9.996;2023-05-19T12:29:35;96862.75;;;14.54;64.56
25080;BME280;13071;48.868;9.996;2023-05-19T12:32:03;96871.97;;;14.49;63.77
25080;BME280;13071;48.868;9.996;2023-05-19T12:34:30;96866.53;;;14.65;64.65
25080;BME280;13071;48.868;9.996;2023-05-19T12:36:56;96861.34;;;14.60;64.40
25080;BME280;13071;48.868;9.996;2023-05-19T12:39:23;96863.72;;;14.61;66.91
25080;BME280;13071;48.868;9.996;2023-05-19T12:41:50;96858.09;;;15.01;64.42
25080;BME280;13071;48.868;9.996;2023-05-19T12:44:18;96862.69;;;14.97;66.46
25080;BME280;13071;48.868;9.996;2023-05-19T12:46:44;96855.38;;;14.86;66.51
25080;BME280;13071;48.868;9.996;2023-05-19T12:49:11;96856.25;;;15.05;62.95
25080;BME280;13071;48.868;9.996;2023-05-19T12:51:37;96858.97;;;15.05;62.20
25080;BME280;13071;48.868;9.996;2023-05-19T12:54:04;96858.44;;;15.00;62.73
25080;BME280;13071;48.868;9.996;2023-05-19T12:56:31;96845.19;;;14.83;65.53
25080;BME280;13071;48.868;9.996;2023-05-19T12:58:59;96847.88;;;14.51;64.75
25080;BME280;13071;48.868;9.996;2023-05-19T13:01:28;96851.69;;;15.09;64.68
25080;BME280;13071;48.868;9.996;2023-05-19T13:03:54;96843.31;;;15.34;62.81
25080;BME280;13071;48.868;9.996;2023-05-19T13:06:21;96854.41;;;15.09;62.73
25080;BME280;13071;48.868;9.996;2023-05-19T13:08:48;96848.56;;;15.27;63.06